KCCR/CCR METAR and TAF weather

Enter ICAO airport designator
Station Type Date Time Source
KCCR METAR 2019/12/08 13:53 UTC NOAA

KCCR 081353Z AUTO 09004KT 10SM -RA FEW070 OVC080 13/11 A2997 RMK AO2 SLP134 P0001 T01280111 $


Station Type Date Time Source
KCCR Decoded METAR 2019/12/08 13:53 UTC NOAA

CONCORD BUCHANAN FIELD, CA, United States (KCCR) 38-00N 122-03W 11M
Dec 08, 2019 - 08:53 AM EST / 2019.12.08 1353 UTC
Wind: from the E (090 degrees) at 5 MPH (4 KT):0
Visibility: 10 mile(s):0
Sky conditions: overcast
Weather: light rain
Precipitation last hour: 0.01 inches
Temperature: 55.0 F (12.8 C)
Dew Point: 52.0 F (11.1 C)
Relative Humidity: 89%
Pressure (altimeter): 29.97 in. Hg (1014 hPa)
ob: KCCR 081353Z AUTO 09004KT 10SM -RA FEW070 OVC080 13/11 A2997 RMK AO2 SLP134 P0001 T01280111
cycle: 14

Station Type Date Time Source
KCCR TAF 2016/02/08 18:39 UTC NOAA

TAF KCCR 081738Z 0818/0918 07006KT P6SM SKC
FM082000 06010KT P6SM SKC
FM090000 06005KT P6SM SKC
FM090600 VRB03KT P6SM SKC

Example: see airport list